createdAt,value
2019-03-06T00:02:13.646Z,12.43
2019-03-06T00:04:40.288Z,11.63
2019-03-06T00:07:07.203Z,14.77
2019-03-06T00:09:33.848Z,13.17
2019-03-06T00:12:00.501Z,19.73
2019-03-06T00:14:27.093Z,19.00
2019-03-06T00:16:54.553Z,13.30
2019-03-06T00:19:21.122Z,15.43
2019-03-06T00:21:47.846Z,12.87
2019-03-06T00:24:14.616Z,14.10
2019-03-06T00:26:41.387Z,15.10
2019-03-06T00:29:08.072Z,15.20
2019-03-06T00:31:35.014Z,13.50
2019-03-06T00:34:01.666Z,19.00
2019-03-06T00:36:30.392Z,16.50
2019-03-06T00:38:57.256Z,14.97
2019-03-06T00:41:25.792Z,13.13
2019-03-06T00:43:52.413Z,14.03
2019-03-06T00:46:19.129Z,11.37
2019-03-06T00:48:45.727Z,14.70
2019-03-06T00:51:12.409Z,11.03
2019-03-06T00:53:39.132Z,15.13
2019-03-06T00:56:06.026Z,15.90
2019-03-06T00:58:32.799Z,13.87
2019-03-06T01:00:59.579Z,17.87
2019-03-06T01:03:26.311Z,15.03
2019-03-06T01:05:53.214Z,16.07
2019-03-06T01:08:20.091Z,13.10
2019-03-06T01:10:46.891Z,15.37
2019-03-06T01:13:13.494Z,13.57
2019-03-06T01:15:40.289Z,15.87
2019-03-06T01:18:06.995Z,17.93
2019-03-06T01:20:33.885Z,19.93
2019-03-06T01:23:00.657Z,14.23
2019-03-06T01:25:27.430Z,18.13
2019-03-06T01:27:54.437Z,17.80
2019-03-06T01:30:25.559Z,11.67
2019-03-06T01:32:54.301Z,14.97
2019-03-06T01:35:22.803Z,16.03
2019-03-06T01:37:51.390Z,12.20
2019-03-06T01:40:20.309Z,16.73
2019-03-06T01:42:48.925Z,16.07
2019-03-06T01:45:15.815Z,15.30
2019-03-06T01:47:42.399Z,16.53
2019-03-06T01:50:10.467Z,15.47
2019-03-06T01:52:37.046Z,14.00
2019-03-06T01:55:09.384Z,15.70
2019-03-06T01:57:36.113Z,15.17
2019-03-06T02:00:08.051Z,15.60
2019-03-06T02:02:34.928Z,16.50
2019-03-06T02:05:01.636Z,14.20
2019-03-06T02:07:28.890Z,17.47
2019-03-06T02:09:55.860Z,17.20
2019-03-06T02:12:22.642Z,15.00
2019-03-06T02:14:49.451Z,15.80
2019-03-06T02:17:16.355Z,12.87
2019-03-06T02:19:43.112Z,13.77
2019-03-06T02:22:10.015Z,13.20
2019-03-06T02:24:36.697Z,18.10
2019-03-06T02:27:03.514Z,15.17
2019-03-06T02:29:30.132Z,10.80
2019-03-06T02:31:56.917Z,14.03
2019-03-06T02:34:23.862Z,13.73
2019-03-06T02:36:50.610Z,14.20
2019-03-06T02:39:17.276Z,13.13
2019-03-06T02:41:43.849Z,16.13
2019-03-06T02:44:11.602Z,12.00
2019-03-06T02:46:40.086Z,10.93
2019-03-06T02:49:06.820Z,14.40
2019-03-06T02:51:33.677Z,16.33
2019-03-06T02:54:00.418Z,12.67
2019-03-06T02:57:23.532Z,14.80
2019-03-06T02:59:52.148Z,15.47
2019-03-06T03:02:20.839Z,14.17
2019-03-06T03:04:49.313Z,12.73
2019-03-06T03:07:15.894Z,16.17
2019-03-06T03:09:42.672Z,16.80
2019-03-06T03:12:11.245Z,13.73
2019-03-06T03:14:38.126Z,15.33
2019-03-06T03:17:06.047Z,15.70
2019-03-06T03:19:32.919Z,9.83
2019-03-06T03:21:59.914Z,7.07
2019-03-06T03:24:26.503Z,9.03
2019-03-06T03:26:53.124Z,6.70
2019-03-06T03:29:19.853Z,3.57
2019-03-06T03:31:46.570Z,3.17
2019-03-06T03:34:13.458Z,4.37
2019-03-06T03:36:40.205Z,2.40
2019-03-06T03:39:07.438Z,2.73
2019-03-06T03:41:34.676Z,2.10
2019-03-06T03:44:01.257Z,1.93
2019-03-06T03:46:28.121Z,0.97
2019-03-06T03:48:54.698Z,1.00
2019-03-06T03:51:21.677Z,1.57
2019-03-06T03:53:48.649Z,1.30
2019-03-06T03:56:15.327Z,0.97
2019-03-06T03:58:42.096Z,1.33
2019-03-06T04:01:08.954Z,1.60
2019-03-06T04:03:35.537Z,0.83
2019-03-06T04:06:02.128Z,1.40
2019-03-06T04:08:28.757Z,1.77
2019-03-06T04:10:55.400Z,0.87
2019-03-06T04:13:22.059Z,1.00
2019-03-06T04:15:48.914Z,1.03
2019-03-06T04:18:15.494Z,0.90
2019-03-06T04:20:42.269Z,1.07
2019-03-06T04:23:09.128Z,0.80
2019-03-06T04:25:35.905Z,2.57
2019-03-06T04:28:02.666Z,1.20
2019-03-06T04:30:29.301Z,1.80
2019-03-06T04:32:55.979Z,0.80
2019-03-06T04:35:22.715Z,1.40
2019-03-06T04:37:49.765Z,1.30
2019-03-06T04:40:16.995Z,1.63
2019-03-06T04:42:43.787Z,1.30
2019-03-06T04:45:15.031Z,1.10
2019-03-06T04:47:41.609Z,1.00
2019-03-06T04:50:11.915Z,1.20
2019-03-06T04:52:40.220Z,1.40
2019-03-06T04:55:09.418Z,1.77
2019-03-06T04:57:37.325Z,2.67
2019-03-06T05:00:09.654Z,1.30
2019-03-06T05:02:36.513Z,1.93
2019-03-06T05:05:04.009Z,3.27
2019-03-06T05:07:30.577Z,1.50
2019-03-06T05:09:57.216Z,2.67
2019-03-06T05:12:23.786Z,2.00
2019-03-06T05:14:50.420Z,1.47
2019-03-06T05:17:18.979Z,1.50
2019-03-06T05:19:46.103Z,1.57
2019-03-06T05:22:12.771Z,1.97
2019-03-06T05:24:39.531Z,2.00
2019-03-06T05:27:06.447Z,2.03
2019-03-06T05:29:33.033Z,1.97
2019-03-06T05:32:05.322Z,2.10
2019-03-06T05:34:32.228Z,2.00
2019-03-06T05:37:04.587Z,1.77
2019-03-06T05:39:31.173Z,1.80
2019-03-06T05:41:57.806Z,3.37
2019-03-06T05:44:24.730Z,1.93
2019-03-06T05:46:51.638Z,2.23
2019-03-06T05:49:18.228Z,2.10
2019-03-06T05:51:44.984Z,3.43
2019-03-06T05:54:11.598Z,3.30
2019-03-06T05:56:38.159Z,3.13
2019-03-06T05:59:06.076Z,2.50
2019-03-06T06:01:32.915Z,3.77
2019-03-06T06:03:59.492Z,3.40
2019-03-06T06:06:26.056Z,3.57
2019-03-06T06:08:52.767Z,4.37
2019-03-06T06:11:19.486Z,4.47
2019-03-06T06:13:46.079Z,4.57
2019-03-06T06:16:12.731Z,5.17
2019-03-06T06:18:39.558Z,3.60
2019-03-06T06:21:08.238Z,3.30
2019-03-06T06:23:36.746Z,4.47
2019-03-06T06:26:03.441Z,4.33
2019-03-06T06:28:29.984Z,4.77
2019-03-06T06:30:56.651Z,4.67
2019-03-06T06:33:23.284Z,5.60
2019-03-06T06:35:49.904Z,5.97
2019-03-06T06:38:16.507Z,5.43
2019-03-06T06:40:43.063Z,5.03
2019-03-06T06:43:09.704Z,4.67
2019-03-06T06:45:37.899Z,6.37
2019-03-06T06:48:09.309Z,5.27
2019-03-06T06:50:41.844Z,4.93
2019-03-06T06:53:12.578Z,6.40
2019-03-06T06:55:45.511Z,7.10
2019-03-06T06:58:17.858Z,5.40
2019-03-06T07:00:52.232Z,6.20
2019-03-06T07:03:26.793Z,8.07
2019-03-06T07:05:55.490Z,6.73
2019-03-06T07:08:24.032Z,7.67
2019-03-06T07:10:52.757Z,9.23
2019-03-06T07:13:21.251Z,5.30
2019-03-06T07:15:49.726Z,8.87
2019-03-06T07:18:18.355Z,7.97
2019-03-06T07:20:47.099Z,7.37
2019-03-06T07:23:15.905Z,8.37
2019-03-06T07:25:44.647Z,11.43
2019-03-06T07:28:13.230Z,6.17
2019-03-06T07:30:41.854Z,6.60
2019-03-06T07:33:10.931Z,5.23
2019-03-06T07:35:45.287Z,4.83
2019-03-06T07:38:12.088Z,6.27
2019-03-06T07:40:41.249Z,6.83
2019-03-06T07:43:09.831Z,5.63
2019-03-06T07:45:38.677Z,6.50
2019-03-06T07:48:07.260Z,6.73
2019-03-06T07:50:35.872Z,5.67
2019-03-06T07:53:10.181Z,6.50
2019-03-06T07:55:38.774Z,5.83
2019-03-06T07:58:11.242Z,5.90
2019-03-06T08:00:37.916Z,4.67
2019-03-06T08:03:05.989Z,4.37
2019-03-06T08:05:32.598Z,5.27
2019-03-06T08:07:59.264Z,4.90
2019-03-06T08:10:28.012Z,5.50
2019-03-06T08:12:56.806Z,4.90
2019-03-06T08:15:25.709Z,6.23
2019-03-06T08:17:52.355Z,4.43
2019-03-06T08:20:21.185Z,5.87
2019-03-06T08:22:49.683Z,6.37
2019-03-06T08:25:18.492Z,5.60
2019-03-06T08:27:45.568Z,5.33
2019-03-06T08:30:12.625Z,5.07
2019-03-06T08:32:39.481Z,5.03
2019-03-06T08:35:10.328Z,5.17
2019-03-06T08:37:37.299Z,4.83
2019-03-06T08:40:08.436Z,6.33
2019-03-06T08:42:35.625Z,4.43
2019-03-06T08:45:07.395Z,3.40
2019-03-06T08:47:36.401Z,5.00
2019-03-06T08:50:09.209Z,5.20
2019-03-06T08:52:37.906Z,6.67
2019-03-06T08:55:11.062Z,4.90
2019-03-06T08:57:40.020Z,3.37
2019-03-06T09:00:14.310Z,4.03
2019-03-06T09:02:43.637Z,2.93
2019-03-06T09:05:12.670Z,5.73
2019-03-06T09:07:41.663Z,6.13
2019-03-06T09:10:11.336Z,5.97
2019-03-06T09:12:40.086Z,4.67
2019-03-06T09:15:13.496Z,4.27
2019-03-06T09:17:42.158Z,4.73
2019-03-06T09:20:11.305Z,8.07
2019-03-06T09:22:39.893Z,6.40
2019-03-06T09:25:09.583Z,8.13
2019-03-06T09:27:38.277Z,7.73
2019-03-06T09:30:15.964Z,12.57
2019-03-06T09:32:42.367Z,16.80
2019-03-06T09:35:12.291Z,11.90
2019-03-06T09:37:41.011Z,14.57
2019-03-06T09:40:10.064Z,11.37
2019-03-06T09:42:38.991Z,11.73
2019-03-06T09:45:09.603Z,11.67
2019-03-06T09:47:38.127Z,10.63
2019-03-06T09:50:10.832Z,8.70
2019-03-06T09:52:39.497Z,12.53
2019-03-06T09:55:10.418Z,12.13
2019-03-06T09:57:39.264Z,11.40
2019-03-06T10:00:12.575Z,11.77
2019-03-06T10:02:41.178Z,15.67
2019-03-06T10:05:10.196Z,13.50
2019-03-06T10:07:38.795Z,12.87
2019-03-06T10:10:10.392Z,15.37
2019-03-06T10:12:47.361Z,17.17
2019-03-06T10:15:11.805Z,18.97
2019-03-06T10:17:40.892Z,16.57
2019-03-06T10:20:13.448Z,17.47
2019-03-06T10:22:40.121Z,15.33
2019-03-06T10:25:07.603Z,15.13
2019-03-06T10:27:34.398Z,20.33
2019-03-06T10:30:03.741Z,18.60
2019-03-06T10:32:31.725Z,16.87
2019-03-06T10:34:58.438Z,25.93
2019-03-06T10:37:25.144Z,24.27
2019-03-06T10:39:53.183Z,23.67
2019-03-06T10:42:19.907Z,21.83
2019-03-06T10:44:46.829Z,21.60
2019-03-06T10:47:13.414Z,21.27
2019-03-06T10:49:41.463Z,21.47
2019-03-06T10:52:08.293Z,16.83
2019-03-06T10:54:44.320Z,20.23
2019-03-06T10:57:05.671Z,18.73
2019-03-06T10:59:32.752Z,19.97
2019-03-06T11:01:59.779Z,21.17
2019-03-06T11:04:28.693Z,24.40
2019-03-06T11:06:55.750Z,26.47
2019-03-06T11:09:24.545Z,21.83
2019-03-06T11:11:51.591Z,26.20
2019-03-06T11:14:18.386Z,24.40
2019-03-06T11:16:45.496Z,30.60
2019-03-06T11:19:13.284Z,31.10
2019-03-06T11:21:40.194Z,27.90
2019-03-06T11:24:07.465Z,25.80
2019-03-06T11:26:35.107Z,35.10
2019-03-06T11:29:07.136Z,26.07
2019-03-06T11:31:34.311Z,22.37
2019-03-06T11:34:01.331Z,26.47
2019-03-06T11:36:31.426Z,22.53
2019-03-06T11:38:58.358Z,21.20
2019-03-06T11:41:25.364Z,22.80
2019-03-06T11:43:52.366Z,23.47
2019-03-06T11:46:19.321Z,24.20
2019-03-06T11:48:46.204Z,20.90
2019-03-06T11:51:13.174Z,24.93
2019-03-06T11:53:40.103Z,20.93
2019-03-06T11:56:07.682Z,25.30
2019-03-06T11:58:34.845Z,26.23
2019-03-06T12:01:08.301Z,33.70
2019-03-06T12:03:39.026Z,21.73
2019-03-06T12:06:05.927Z,28.00
2019-03-06T12:08:33.087Z,26.47
2019-03-06T12:10:59.748Z,27.00
2019-03-06T12:13:26.588Z,27.00
2019-03-06T12:15:53.646Z,21.00
2019-03-06T12:18:22.528Z,23.73
2019-03-06T12:20:49.620Z,29.43
2019-03-06T12:23:16.732Z,24.47
2019-03-06T12:25:43.610Z,28.77
2019-03-06T12:28:13.436Z,25.70
2019-03-06T12:30:41.014Z,21.77
2019-03-06T12:33:13.849Z,22.57
2019-03-06T12:35:40.913Z,19.33
2019-03-06T12:38:07.572Z,20.20
2019-03-06T12:40:34.472Z,25.53
2019-03-06T12:43:01.421Z,23.70
2019-03-06T12:45:28.510Z,23.53
2019-03-06T12:48:00.818Z,22.50
2019-03-06T12:50:33.858Z,25.03
2019-03-06T12:53:00.754Z,21.77
2019-03-06T12:55:27.622Z,20.17
2019-03-06T12:57:59.283Z,25.27
2019-03-06T13:00:25.373Z,22.17
2019-03-06T13:02:52.665Z,20.23
2019-03-06T13:05:22.032Z,23.03
2019-03-06T13:07:48.883Z,21.03
2019-03-06T13:10:17.345Z,17.33
2019-03-06T13:12:45.506Z,18.23
2019-03-06T13:15:17.854Z,15.83
2019-03-06T13:17:44.712Z,16.20
2019-03-06T13:20:12.536Z,14.47
2019-03-06T13:22:39.792Z,13.20
2019-03-06T13:25:09.678Z,41.23
2019-03-06T13:27:37.450Z,27.27
2019-03-06T13:30:11.427Z,110.57
2019-03-06T13:32:39.926Z,22.10
2019-03-06T13:35:07.725Z,14.17
2019-03-06T13:37:34.448Z,14.60
2019-03-06T13:40:05.456Z,18.33
2019-03-06T13:42:32.326Z,26.60
2019-03-06T13:45:06.760Z,15.87
2019-03-06T13:47:34.456Z,11.53
2019-03-06T13:50:01.557Z,15.20
2019-03-06T13:52:30.343Z,13.57
2019-03-06T13:54:57.132Z,26.93
2019-03-06T13:57:23.932Z,45.27
2019-03-06T13:59:51.702Z,27.40
2019-03-06T14:02:18.762Z,13.30
2019-03-06T14:04:45.569Z,33.97
2019-03-06T14:07:12.288Z,18.83
2019-03-06T14:09:40.166Z,15.17
2019-03-06T14:12:07.053Z,19.80
2019-03-06T14:14:33.745Z,11.47
2019-03-06T14:17:00.927Z,10.23
2019-03-06T14:19:27.644Z,10.37
2019-03-06T14:21:54.691Z,12.00
2019-03-06T14:24:21.581Z,14.00
2019-03-06T14:26:48.483Z,10.17
2019-03-06T14:29:15.296Z,9.37
2019-03-06T14:31:42.788Z,12.07
2019-03-06T14:34:09.652Z,10.30
2019-03-06T14:36:36.691Z,9.23
2019-03-06T14:39:09.149Z,14.73
2019-03-06T14:41:35.916Z,7.50
2019-03-06T14:44:02.574Z,17.70
2019-03-06T14:46:29.622Z,23.50
2019-03-06T14:48:56.176Z,12.63
2019-03-06T14:51:22.929Z,13.27
2019-03-06T14:53:49.511Z,8.23
2019-03-06T14:56:16.488Z,7.97
2019-03-06T14:58:43.757Z,10.10
2019-03-06T15:01:10.572Z,9.00
2019-03-06T15:03:37.386Z,14.83
2019-03-06T15:06:04.769Z,10.27
2019-03-06T15:08:31.664Z,10.53
2019-03-06T15:10:58.351Z,5.90
2019-03-06T15:13:25.206Z,10.10
2019-03-06T15:15:52.278Z,9.77
2019-03-06T15:18:19.705Z,9.50
2019-03-06T15:20:46.498Z,9.20
2019-03-06T15:23:13.240Z,9.73
2019-03-06T15:25:40.223Z,6.80
2019-03-06T15:28:07.308Z,8.10
2019-03-06T15:30:34.236Z,10.60
2019-03-06T15:33:01.540Z,9.90
2019-03-06T15:35:28.186Z,11.37
2019-03-06T15:37:55.091Z,5.67
2019-03-06T15:40:27.504Z,11.80
2019-03-06T15:42:54.572Z,10.10
2019-03-06T15:45:22.800Z,7.63
2019-03-06T15:47:49.802Z,10.03
2019-03-06T15:50:17.665Z,8.30
2019-03-06T15:52:44.886Z,10.97
2019-03-06T15:55:14.371Z,10.13
2019-03-06T15:57:41.390Z,11.83
2019-03-06T16:00:15.002Z,12.00
2019-03-06T16:02:41.990Z,12.17
2019-03-06T16:05:14.625Z,8.77
2019-03-06T16:07:41.302Z,15.20
2019-03-06T16:10:08.562Z,7.93
2019-03-06T16:12:35.640Z,12.47
2019-03-06T16:15:06.767Z,17.00
2019-03-06T16:17:33.710Z,14.30
2019-03-06T16:20:00.396Z,10.50
2019-03-06T16:22:26.965Z,8.13
2019-03-06T16:24:53.623Z,10.80
2019-03-06T16:27:20.342Z,10.77
2019-03-06T16:29:47.131Z,13.27
2019-03-06T16:32:14.054Z,17.53
2019-03-06T16:34:42.066Z,28.77
2019-03-06T16:37:09.301Z,13.20
2019-03-06T16:39:36.117Z,17.03
2019-03-06T16:42:03.284Z,18.73
2019-03-06T16:44:29.986Z,23.67
2019-03-06T16:47:03.704Z,22.77
2019-03-06T16:49:25.416Z,14.17
2019-03-06T16:52:48.568Z,20.17
2019-03-06T16:55:17.865Z,23.57
2019-03-06T16:57:45.471Z,17.10
2019-03-06T17:00:17.366Z,21.47
2019-03-06T17:02:44.126Z,20.80
2019-03-06T17:05:16.433Z,26.97
2019-03-06T17:07:43.540Z,22.10
2019-03-06T17:10:10.942Z,27.70
2019-03-06T17:12:37.716Z,27.23
2019-03-06T17:15:07.940Z,27.50
2019-03-06T17:17:34.769Z,31.43
2019-03-06T17:20:03.070Z,27.77
2019-03-06T17:22:30.134Z,27.53
2019-03-06T17:24:57.145Z,27.20
2019-03-06T17:27:24.238Z,36.07
2019-03-06T17:29:50.967Z,31.83
2019-03-06T17:32:17.919Z,32.13
2019-03-06T17:34:45.058Z,43.30
2019-03-06T17:37:11.852Z,32.03
2019-03-06T17:39:38.706Z,39.50
2019-03-06T17:42:05.515Z,36.43
2019-03-06T17:44:32.596Z,41.90
2019-03-06T17:46:59.294Z,35.17
2019-03-06T17:49:26.167Z,39.73
2019-03-06T17:51:52.863Z,35.60
2019-03-06T17:54:21.570Z,34.77
2019-03-06T17:56:48.495Z,35.63
2019-03-06T17:59:15.253Z,36.40
2019-03-06T18:01:42.375Z,37.50
2019-03-06T18:04:11.168Z,34.13
2019-03-06T18:06:38.132Z,39.87
2019-03-06T18:09:06.102Z,44.10
2019-03-06T18:11:35.876Z,40.67
2019-03-06T18:14:06.247Z,40.17
2019-03-06T18:16:33.287Z,37.83
2019-03-06T18:19:00.468Z,38.27
2019-03-06T18:21:27.314Z,38.60
2019-03-06T18:23:54.041Z,44.23
2019-03-06T18:26:20.605Z,41.77
2019-03-06T18:28:47.481Z,40.10
2019-03-06T18:31:14.452Z,44.40
2019-03-06T18:33:46.052Z,42.37
2019-03-06T18:36:14.368Z,39.77
2019-03-06T18:38:42.115Z,43.20
2019-03-06T18:41:09.351Z,42.47
2019-03-06T18:43:36.203Z,37.13
2019-03-06T18:46:03.092Z,34.53
2019-03-06T18:48:30.140Z,38.77
2019-03-06T18:50:57.169Z,38.43
2019-03-06T18:53:24.537Z,41.03
2019-03-06T18:55:51.693Z,38.90
2019-03-06T18:58:19.217Z,37.60
2019-03-06T19:00:46.152Z,39.47
2019-03-06T19:03:13.084Z,51.47
2019-03-06T19:05:40.380Z,58.70
2019-03-06T19:08:07.515Z,49.00
2019-03-06T19:10:34.587Z,40.60
2019-03-06T19:13:01.490Z,43.37
2019-03-06T19:15:29.371Z,37.17
2019-03-06T19:17:56.723Z,35.50
2019-03-06T19:20:23.850Z,43.23
2019-03-06T19:22:53.155Z,38.30
2019-03-06T19:25:20.585Z,53.73
2019-03-06T19:27:47.922Z,43.47
2019-03-06T19:30:19.418Z,40.10
2019-03-06T19:32:46.640Z,39.03
2019-03-06T19:35:15.371Z,44.27
2019-03-06T19:37:42.791Z,41.70
2019-03-06T19:40:13.489Z,44.97
2019-03-06T19:42:41.038Z,37.03
2019-03-06T19:45:13.567Z,43.13
2019-03-06T19:47:43.250Z,48.87
2019-03-06T19:50:14.722Z,43.83
2019-03-06T19:52:41.882Z,40.90
2019-03-06T19:55:11.279Z,43.70
2019-03-06T19:57:44.034Z,45.70
2019-03-06T20:00:10.921Z,40.83
2019-03-06T20:02:38.171Z,50.57
2019-03-06T20:05:05.383Z,44.30
2019-03-06T20:07:32.457Z,41.03
2019-03-06T20:09:59.709Z,42.23
2019-03-06T20:12:26.438Z,41.13
2019-03-06T20:14:54.007Z,48.57
2019-03-06T20:17:21.045Z,44.60
2019-03-06T20:19:49.282Z,49.80
2019-03-06T20:22:16.757Z,47.90
2019-03-06T20:24:45.645Z,49.57
2019-03-06T20:27:12.628Z,49.00
2019-03-06T20:29:39.555Z,53.70
2019-03-06T20:32:06.548Z,46.93
2019-03-06T20:34:33.386Z,45.07
2019-03-06T20:37:04.082Z,43.47
2019-03-06T20:39:31.547Z,48.00
2019-03-06T20:41:58.618Z,47.30
2019-03-06T20:44:25.540Z,44.10
2019-03-06T20:46:52.372Z,44.27
2019-03-06T20:49:19.382Z,53.00
2019-03-06T20:51:47.024Z,48.27
2019-03-06T20:54:13.982Z,55.20
2019-03-06T20:56:41.088Z,43.67
2019-03-06T20:59:08.153Z,49.37
2019-03-06T21:01:36.072Z,52.87
2019-03-06T21:04:03.257Z,45.93
2019-03-06T21:06:33.438Z,55.03
2019-03-06T21:08:58.544Z,45.47
2019-03-06T21:11:26.031Z,56.83
2019-03-06T21:13:52.587Z,44.93
2019-03-06T21:16:20.022Z,52.63
2019-03-06T21:18:46.910Z,55.70
2019-03-06T21:21:15.070Z,44.20
2019-03-06T21:23:42.131Z,50.93
2019-03-06T21:26:09.077Z,47.50
2019-03-06T21:28:35.831Z,65.70
2019-03-06T21:31:02.635Z,50.90
2019-03-06T21:33:29.595Z,47.70
2019-03-06T21:35:56.382Z,51.27
2019-03-06T21:38:23.231Z,44.57
2019-03-06T21:40:50.108Z,52.43
2019-03-06T21:43:16.917Z,55.40
2019-03-06T21:45:43.644Z,53.83
2019-03-06T21:48:10.417Z,52.73
2019-03-06T21:50:37.658Z,45.83
2019-03-06T21:53:04.682Z,49.43
2019-03-06T21:55:31.602Z,56.57
2019-03-06T21:57:58.247Z,54.13
2019-03-06T22:00:25.258Z,50.60
2019-03-06T22:02:52.230Z,46.20
2019-03-06T22:05:19.247Z,50.27
2019-03-06T22:07:46.260Z,48.53
2019-03-06T22:10:16.362Z,47.13
2019-03-06T22:12:43.827Z,47.60
2019-03-06T22:15:15.184Z,52.17
2019-03-06T22:17:42.058Z,47.97
2019-03-06T22:20:12.281Z,44.87
2019-03-06T22:22:39.179Z,48.87
2019-03-06T22:25:11.701Z,48.37
2019-03-06T22:27:38.477Z,41.83
2019-03-06T22:30:10.984Z,45.67
2019-03-06T22:32:37.940Z,42.83
2019-03-06T22:35:06.202Z,45.77
2019-03-06T22:37:32.944Z,44.03
2019-03-06T22:39:59.654Z,43.47
2019-03-06T22:42:26.472Z,42.43
2019-03-06T22:44:53.081Z,45.33
2019-03-06T22:47:19.954Z,49.37
2019-03-06T22:49:46.567Z,47.17
2019-03-06T22:52:13.196Z,42.00
2019-03-06T22:54:41.144Z,42.23
2019-03-06T22:57:07.924Z,48.37
2019-03-06T22:59:35.296Z,38.83
2019-03-06T23:02:02.193Z,40.13
2019-03-06T23:04:29.613Z,39.20
2019-03-06T23:06:56.505Z,40.67
2019-03-06T23:09:23.152Z,42.60
2019-03-06T23:11:50.028Z,36.37
2019-03-06T23:14:16.823Z,38.17
2019-03-06T23:16:43.616Z,41.13
2019-03-06T23:19:10.325Z,36.03
2019-03-06T23:21:37.130Z,37.40
2019-03-06T23:24:04.018Z,36.67
2019-03-06T23:26:30.751Z,28.17
2019-03-06T23:28:57.432Z,36.53
2019-03-06T23:31:23.995Z,33.13
2019-03-06T23:33:50.777Z,30.53
2019-03-06T23:36:18.599Z,33.60
2019-03-06T23:38:45.435Z,37.07
2019-03-06T23:41:12.059Z,33.03
2019-03-06T23:43:38.750Z,35.37
2019-03-06T23:46:05.628Z,28.03
2019-03-06T23:48:32.333Z,25.57
2019-03-06T23:51:00.915Z,25.07
2019-03-06T23:53:29.641Z,29.60
2019-03-06T23:55:56.558Z,25.70
2019-03-06T23:58:23.299Z,27.27
